sensor_id;sensor_type;location;lat;lon;timestamp;pressure;altitude;pressure_sealevel;temperature;humidity
16100;BME280;8154;50.830;12.082;2024-02-23T00:00:15;96669.72;;;23.65;34.95
16100;BME280;8154;50.830;12.082;2024-02-23T00:02:44;96675.31;;;23.69;34.89
16100;BME280;8154;50.830;12.082;2024-02-23T00:05:13;96656.94;;;23.67;35.06
16100;BME280;8154;50.830;12.082;2024-02-23T00:07:39;96653.72;;;23.70;34.89
16100;BME280;8154;50.830;12.082;2024-02-23T00:10:06;96650.56;;;23.68;34.90
16100;BME280;8154;50.830;12.082;2024-02-23T00:12:32;96643.59;;;23.67;35.13
16100;BME280;8154;50.830;12.082;2024-02-23T00:14:58;96655.34;;;23.71;34.83
16100;BME280;8154;50.830;12.082;2024-02-23T00:17:39;96665.50;;;23.74;35.05
16100;BME280;8154;50.830;12.082;2024-02-23T00:20:09;96649.22;;;23.76;34.73
16100;BME280;8154;50.830;12.082;2024-02-23T00:22:41;96663.34;;;23.76;34.67
16100;BME280;8154;50.830;12.082;2024-02-23T00:25:08;96647.06;;;23.68;34.75
16100;BME280;8154;50.830;12.082;2024-02-23T00:27:34;96662.00;;;23.69;35.18
16100;BME280;8154;50.830;12.082;2024-02-23T00:30:01;96690.81;;;23.72;35.08
16100;BME280;8154;50.830;12.082;2024-02-23T00:32:27;96698.00;;;23.66;35.15
16100;BME280;8154;50.830;12.082;2024-02-23T00:34:53;96715.31;;;23.69;35.00
16100;BME280;8154;50.830;12.082;2024-02-23T00:37:19;96711.06;;;23.68;35.18
16100;BME280;8154;50.830;12.082;2024-02-23T00:39:47;96683.88;;;23.71;35.05
16100;BME280;8154;50.830;12.082;2024-02-23T00:42:16;96695.34;;;23.71;34.78
16100;BME280;8154;50.830;12.082;2024-02-23T00:44:46;96697.47;;;23.69;35.12
16100;BME280;8154;50.830;12.082;2024-02-23T00:47:15;96704.41;;;23.70;34.79
16100;BME280;8154;50.830;12.082;2024-02-23T00:49:41;96692.69;;;23.76;35.11
16100;BME280;8154;50.830;12.082;2024-02-23T00:52:07;96690.81;;;23.77;34.87
16100;BME280;8154;50.830;12.082;2024-02-23T00:54:33;96694.78;;;23.64;34.91
16100;BME280;8154;50.830;12.082;2024-02-23T00:57:00;96712.69;;;23.74;34.77
16100;BME280;8154;50.830;12.082;2024-02-23T00:59:26;96732.41;;;23.73;34.83
16100;BME280;8154;50.830;12.082;2024-02-23T01:01:56;96758.00;;;23.74;34.55
16100;BME280;8154;50.830;12.082;2024-02-23T01:04:25;96748.63;;;23.61;34.64
16100;BME280;8154;50.830;12.082;2024-02-23T01:06:55;96790.53;;;23.71;34.75
16100;BME280;8154;50.830;12.082;2024-02-23T01:09:23;96792.66;;;23.69;34.82
16100;BME280;8154;50.830;12.082;2024-02-23T01:11:50;96802.53;;;23.68;35.07
16100;BME280;8154;50.830;12.082;2024-02-23T01:14:35;96804.66;;;23.66;35.25
16100;BME280;8154;50.830;12.082;2024-02-23T01:17:02;96805.47;;;23.67;35.24
16100;BME280;8154;50.830;12.082;2024-02-23T01:19:29;96798.72;;;23.59;34.78
16100;BME280;8154;50.830;12.082;2024-02-23T01:21:55;96821.47;;;23.72;34.74
16100;BME280;8154;50.830;12.082;2024-02-23T01:24:28;96830.00;;;23.74;34.80
16100;BME280;8154;50.830;12.082;2024-02-23T01:26:58;96845.44;;;23.72;34.97
16100;BME280;8154;50.830;12.082;2024-02-23T01:29:27;96847.59;;;23.70;35.08
16100;BME280;8154;50.830;12.082;2024-02-23T01:31:56;96859.34;;;23.74;34.69
16100;BME280;8154;50.830;12.082;2024-02-23T01:34:22;96867.91;;;23.76;34.82
16100;BME280;8154;50.830;12.082;2024-02-23T01:36:48;96873.75;;;23.78;34.90
16100;BME280;8154;50.830;12.082;2024-02-23T01:39:14;96885.75;;;23.75;34.46
16100;BME280;8154;50.830;12.082;2024-02-23T01:41:41;96890.00;;;23.71;34.83
16100;BME280;8154;50.830;12.082;2024-02-23T01:44:12;96892.63;;;23.66;34.81
16100;BME280;8154;50.830;12.082;2024-02-23T01:46:41;96904.06;;;23.62;34.74
16100;BME280;8154;50.830;12.082;2024-02-23T01:49:09;96881.13;;;23.56;34.92
16100;BME280;8154;50.830;12.082;2024-02-23T01:51:38;96911.25;;;23.61;34.82
16100;BME280;8154;50.830;12.082;2024-02-23T01:54:07;96934.53;;;23.71;34.86
16100;BME280;8154;50.830;12.082;2024-02-23T01:56:56;96932.41;;;23.73;34.90
16100;BME280;8154;50.830;12.082;2024-02-23T01:59:25;96935.84;;;23.73;34.77
16100;BME280;8154;50.830;12.082;2024-02-23T02:01:52;96932.94;;;23.70;34.95
16100;BME280;8154;50.830;12.082;2024-02-23T02:04:19;96939.31;;;23.69;34.69
16100;BME280;8154;50.830;12.082;2024-02-23T02:06:48;96919.22;;;23.56;34.79
16100;BME280;8154;50.830;12.082;2024-02-23T02:09:17;96967.34;;;23.76;34.61
16100;BME280;8154;50.830;12.082;2024-02-23T02:11:49;96963.91;;;23.76;34.58
16100;BME280;8154;50.830;12.082;2024-02-23T02:14:16;96970.28;;;23.75;34.71
16100;BME280;8154;50.830;12.082;2024-02-23T02:16:44;96974.47;;;23.66;34.66
16100;BME280;8154;50.830;12.082;2024-02-23T02:19:11;96992.59;;;23.64;34.84
16100;BME280;8154;50.830;12.082;2024-02-23T02:21:38;96962.22;;;23.65;34.76
16100;BME280;8154;50.830;12.082;2024-02-23T02:24:06;96989.19;;;23.68;34.58
16100;BME280;8154;50.830;12.082;2024-02-23T02:26:32;96965.56;;;23.50;34.82
16100;BME280;8154;50.830;12.082;2024-02-23T02:29:01;96995.56;;;23.67;34.73
16100;BME280;8154;50.830;12.082;2024-02-23T02:31:30;97005.44;;;23.67;34.52
16100;BME280;8154;50.830;12.082;2024-02-23T02:34:04;97015.34;;;23.71;34.67
16100;BME280;8154;50.830;12.082;2024-02-23T02:36:34;97021.75;;;23.75;34.51
16100;BME280;8154;50.830;12.082;2024-02-23T02:39:17;97015.34;;;23.76;34.35
16100;BME280;8154;50.830;12.082;2024-02-23T02:41:43;97028.09;;;23.69;34.72
16100;BME280;8154;50.830;12.082;2024-02-23T02:44:09;97030.47;;;23.66;34.86
16100;BME280;8154;50.830;12.082;2024-02-23T02:46:36;97031.84;;;23.68;34.58
16100;BME280;8154;50.830;12.082;2024-02-23T02:49:03;97034.78;;;23.72;34.62
16100;BME280;8154;50.830;12.082;2024-02-23T02:51:30;97037.97;;;23.69;34.47
16100;BME280;8154;50.830;12.082;2024-02-23T02:53:56;97043.28;;;23.69;34.41
16100;BME280;8154;50.830;12.082;2024-02-23T02:56:25;97039.84;;;23.68;34.53
16100;BME280;8154;50.830;12.082;2024-02-23T02:58:52;97037.97;;;23.69;34.70
16100;BME280;8154;50.830;12.082;2024-02-23T03:01:18;97034.16;;;23.60;34.65
16100;BME280;8154;50.830;12.082;2024-02-23T03:03:44;97032.06;;;23.62;34.64
16100;BME280;8154;50.830;12.082;2024-02-23T03:06:11;97058.50;;;23.68;34.59
16100;BME280;8154;50.830;12.082;2024-02-23T03:08:37;97056.13;;;23.72;34.38
16100;BME280;8154;50.830;12.082;2024-02-23T03:11:04;97072.69;;;23.74;34.46
16100;BME280;8154;50.830;12.082;2024-02-23T03:13:33;97080.41;;;23.75;34.40
16100;BME280;8154;50.830;12.082;2024-02-23T03:16:02;97083.66;;;23.77;34.21
16100;BME280;8154;50.830;12.082;2024-02-23T03:18:31;97082.59;;;23.78;34.37
16100;BME280;8154;50.830;12.082;2024-02-23T03:20:57;97089.19;;;23.71;34.22
16100;BME280;8154;50.830;12.082;2024-02-23T03:23:23;97091.25;;;23.64;34.33
16100;BME280;8154;50.830;12.082;2024-02-23T03:25:49;97082.75;;;23.67;34.65
16100;BME280;8154;50.830;12.082;2024-02-23T03:28:34;97105.69;;;23.68;34.41
16100;BME280;8154;50.830;12.082;2024-02-23T03:31:01;97102.22;;;23.67;34.60
16100;BME280;8154;50.830;12.082;2024-02-23T03:33:43;97105.69;;;23.68;34.47
16100;BME280;8154;50.830;12.082;2024-02-23T03:36:09;97124.88;;;23.65;34.58
16100;BME280;8154;50.830;12.082;2024-02-23T03:38:36;97131.22;;;23.59;34.53
16100;BME280;8154;50.830;12.082;2024-02-23T03:41:05;97148.59;;;23.66;34.30
16100;BME280;8154;50.830;12.082;2024-02-23T03:43:34;97131.03;;;23.70;34.39
16100;BME280;8154;50.830;12.082;2024-02-23T03:46:20;97151.59;;;23.70;34.46
16100;BME280;8154;50.830;12.082;2024-02-23T03:48:47;97153.38;;;23.64;34.39
16100;BME280;8154;50.830;12.082;2024-02-23T03:51:14;97150.47;;;23.66;34.62
16100;BME280;8154;50.830;12.082;2024-02-23T03:53:41;97160.63;;;23.69;34.22
16100;BME280;8154;50.830;12.082;2024-02-23T03:56:10;97159.84;;;23.68;34.28
16100;BME280;8154;50.830;12.082;2024-02-23T03:58:39;97163.84;;;23.71;34.52
16100;BME280;8154;50.830;12.082;2024-02-23T04:01:08;97165.38;;;23.62;34.30
16100;BME280;8154;50.830;12.082;2024-02-23T04:03:38;97165.63;;;23.60;34.65
16100;BME280;8154;50.830;12.082;2024-02-23T04:06:05;97162.13;;;23.60;34.66
16100;BME280;8154;50.830;12.082;2024-02-23T04:08:31;97179.22;;;23.64;34.64
16100;BME280;8154;50.830;12.082;2024-02-23T04:11:15;97175.47;;;23.60;34.37
16100;BME280;8154;50.830;12.082;2024-02-23T04:13:41;97185.56;;;23.58;34.51
16100;BME280;8154;50.830;12.082;2024-02-23T04:16:08;97168.31;;;23.65;34.37
16100;BME280;8154;50.830;12.082;2024-02-23T04:18:37;97172.09;;;23.69;34.50
16100;BME280;8154;50.830;12.082;2024-02-23T04:21:06;97164.53;;;23.61;34.35
16100;BME280;8154;50.830;12.082;2024-02-23T04:23:35;97180.41;;;23.73;34.34
16100;BME280;8154;50.830;12.082;2024-02-23T04:26:01;97184.69;;;23.74;34.18
16100;BME280;8154;50.830;12.082;2024-02-23T04:28:28;97183.63;;;23.75;34.45
16100;BME280;8154;50.830;12.082;2024-02-23T04:30:56;97187.28;;;23.69;34.38
16100;BME280;8154;50.830;12.082;2024-02-23T04:33:23;97198.72;;;23.64;34.42
16100;BME280;8154;50.830;12.082;2024-02-23T04:36:07;97189.28;;;23.57;34.38
16100;BME280;8154;50.830;12.082;2024-02-23T04:38:33;97200.56;;;23.64;34.43
16100;BME280;8154;50.830;12.082;2024-02-23T04:41:06;97205.41;;;23.67;34.55
16100;BME280;8154;50.830;12.082;2024-02-23T04:43:34;97223.28;;;23.66;34.49
16100;BME280;8154;50.830;12.082;2024-02-23T04:46:03;97209.88;;;23.61;34.31
16100;BME280;8154;50.830;12.082;2024-02-23T04:48:31;97222.38;;;23.61;34.34
16100;BME280;8154;50.830;12.082;2024-02-23T04:50:58;97220.59;;;23.66;34.48
16100;BME280;8154;50.830;12.082;2024-02-23T04:53:26;97207.84;;;23.68;34.29
16100;BME280;8154;50.830;12.082;2024-02-23T04:55:53;97207.59;;;23.70;34.21
16100;BME280;8154;50.830;12.082;2024-02-23T04:58:20;97205.44;;;23.72;34.18
16100;BME280;8154;50.830;12.082;2024-02-23T05:01:07;97201.19;;;23.71;34.32
16100;BME280;8154;50.830;12.082;2024-02-23T05:03:37;97196.84;;;23.65;34.33
16100;BME280;8154;50.830;12.082;2024-02-23T05:06:06;97219.78;;;23.66;34.10
16100;BME280;8154;50.830;12.082;2024-02-23T05:08:32;97235.47;;;23.62;34.22
16100;BME280;8154;50.830;12.082;2024-02-23T05:11:01;97245.34;;;23.62;34.25
16100;BME280;8154;50.830;12.082;2024-02-23T05:13:28;97244.03;;;23.64;34.47
16100;BME280;8154;50.830;12.082;2024-02-23T05:15:56;97250.69;;;23.62;34.28
16100;BME280;8154;50.830;12.082;2024-02-23T05:18:23;97253.28;;;23.57;34.48
16100;BME280;8154;50.830;12.082;2024-02-23T05:20:49;97266.69;;;23.62;34.33
16100;BME280;8154;50.830;12.082;2024-02-23T05:23:18;97293.88;;;23.64;34.51
16100;BME280;8154;50.830;12.082;2024-02-23T05:25:47;97293.41;;;23.67;34.06
16100;BME280;8154;50.830;12.082;2024-02-23T05:28:16;97285.97;;;23.69;34.34
16100;BME280;8154;50.830;12.082;2024-02-23T05:30:45;97290.75;;;23.67;34.55
16100;BME280;8154;50.830;12.082;2024-02-23T05:33:11;97314.19;;;23.65;34.21
16100;BME280;8154;50.830;12.082;2024-02-23T05:35:38;97310.69;;;23.64;34.26
16100;BME280;8154;50.830;12.082;2024-02-23T05:38:22;97312.88;;;23.67;34.33
16100;BME280;8154;50.830;12.082;2024-02-23T05:40:48;97315.78;;;23.66;34.44
16100;BME280;8154;50.830;12.082;2024-02-23T05:43:32;97311.28;;;23.66;34.20
16100;BME280;8154;50.830;12.082;2024-02-23T05:46:01;97319.69;;;23.58;34.46
16100;BME280;8154;50.830;12.082;2024-02-23T05:48:27;97336.19;;;23.55;34.58
16100;BME280;8154;50.830;12.082;2024-02-23T05:50:57;97348.22;;;23.58;34.45
16100;BME280;8154;50.830;12.082;2024-02-23T05:53:26;97338.69;;;23.62;34.46
16100;BME280;8154;50.830;12.082;2024-02-23T05:55:52;97347.16;;;23.59;34.28
16100;BME280;8154;50.830;12.082;2024-02-23T05:58:18;97345.25;;;23.54;34.61
16100;BME280;8154;50.830;12.082;2024-02-23T06:00:44;97354.34;;;23.58;34.63
16100;BME280;8154;50.830;12.082;2024-02-23T06:03:11;97347.97;;;23.59;34.46
16100;BME280;8154;50.830;12.082;2024-02-23T06:05:38;97342.44;;;23.66;34.38
16100;BME280;8154;50.830;12.082;2024-02-23T06:08:07;97344.31;;;23.65;34.08
16100;BME280;8154;50.830;12.082;2024-02-23T06:10:36;97353.03;;;23.61;34.43
16100;BME280;8154;50.830;12.082;2024-02-23T06:13:06;97359.69;;;23.58;34.45
16100;BME280;8154;50.830;12.082;2024-02-23T06:15:34;97353.78;;;23.56;34.47
16100;BME280;8154;50.830;12.082;2024-02-23T06:18:01;97354.03;;;23.55;34.54
16100;BME280;8154;50.830;12.082;2024-02-23T06:20:27;97362.94;;;23.60;34.22
16100;BME280;8154;50.830;12.082;2024-02-23T06:22:53;97370.09;;;23.60;34.47
16100;BME280;8154;50.830;12.082;2024-02-23T06:25:35;97361.38;;;23.64;34.47
16100;BME280;8154;50.830;12.082;2024-02-23T06:28:21;97363.53;;;23.67;34.22
16100;BME280;8154;50.830;12.082;2024-02-23T06:31:09;97370.44;;;23.63;34.43
16100;BME280;8154;50.830;12.082;2024-02-23T06:33:35;97383.75;;;23.63;34.43
16100;BME280;8154;50.830;12.082;2024-02-23T06:36:07;97379.22;;;23.64;34.48
16100;BME280;8154;50.830;12.082;2024-02-23T06:38:36;97376.75;;;23.57;34.32
16100;BME280;8154;50.830;12.082;2024-02-23T06:41:03;97397.09;;;23.63;34.18
16100;BME280;8154;50.830;12.082;2024-02-23T06:43:29;97375.94;;;23.57;34.68
16100;BME280;8154;50.830;12.082;2024-02-23T06:45:55;97376.19;;;23.55;34.58
16100;BME280;8154;50.830;12.082;2024-02-23T06:48:23;97399.34;;;23.55;34.38
16100;BME280;8154;50.830;12.082;2024-02-23T06:50:50;97393.28;;;23.59;34.55
16100;BME280;8154;50.830;12.082;2024-02-23T06:53:20;97401.47;;;23.53;34.52
16100;BME280;8154;50.830;12.082;2024-02-23T06:55:47;97428.53;;;23.61;34.53
16100;BME280;8154;50.830;12.082;2024-02-23T06:58:16;97443.16;;;23.59;34.71
16100;BME280;8154;50.830;12.082;2024-02-23T07:00:44;97441.78;;;23.56;34.57
16100;BME280;8154;50.830;12.082;2024-02-23T07:03:10;97448.56;;;23.64;34.45
16100;BME280;8154;50.830;12.082;2024-02-23T07:05:37;97443.69;;;23.61;34.52
16100;BME280;8154;50.830;12.082;2024-02-23T07:08:21;97452.75;;;23.60;34.22
16100;BME280;8154;50.830;12.082;2024-02-23T07:10:48;97462.94;;;23.63;34.42
16100;BME280;8154;50.830;12.082;2024-02-23T07:13:15;97468.84;;;23.65;34.21
16100;BME280;8154;50.830;12.082;2024-02-23T07:15:47;97482.50;;;23.68;34.55
16100;BME280;8154;50.830;12.082;2024-02-23T07:18:16;97469.88;;;23.64;34.41
16100;BME280;8154;50.830;12.082;2024-02-23T07:20:44;97473.03;;;23.61;34.66
16100;BME280;8154;50.830;12.082;2024-02-23T07:23:10;97499.22;;;23.64;34.57
16100;BME280;8154;50.830;12.082;2024-02-23T07:25:38;97508.28;;;23.63;34.34
16100;BME280;8154;50.830;12.082;2024-02-23T07:28:05;97514.66;;;23.62;34.47
16100;BME280;8154;50.830;12.082;2024-02-23T07:30:32;97517.09;;;23.63;34.47
16100;BME280;8154;50.830;12.082;2024-02-23T07:33:01;97512.41;;;23.70;34.47
16100;BME280;8154;50.830;12.082;2024-02-23T07:35:30;97501.97;;;23.69;34.54
16100;BME280;8154;50.830;12.082;2024-02-23T07:37:59;97508.75;;;23.60;34.34
16100;BME280;8154;50.830;12.082;2024-02-23T07:40:28;97504.53;;;23.64;34.32
16100;BME280;8154;50.830;12.082;2024-02-23T07:42:57;97500.38;;;23.68;34.40
16100;BME280;8154;50.830;12.082;2024-02-23T07:45:24;97501.97;;;23.69;34.06
16100;BME280;8154;50.830;12.082;2024-02-23T07:47:50;97512.63;;;23.69;34.44
16100;BME280;8154;50.830;12.082;2024-02-23T07:50:16;97510.69;;;23.64;34.13
16100;BME280;8154;50.830;12.082;2024-02-23T07:52:44;97537.38;;;23.64;34.33
16100;BME280;8154;50.830;12.082;2024-02-23T07:55:10;97538.09;;;23.60;34.58
16100;BME280;8154;50.830;12.082;2024-02-23T07:57:39;97551.19;;;23.61;34.47
16100;BME280;8154;50.830;12.082;2024-02-23T08:00:09;97541.88;;;23.64;34.33
16100;BME280;8154;50.830;12.082;2024-02-23T08:02:36;97533.88;;;23.64;34.43
16100;BME280;8154;50.830;12.082;2024-02-23T08:05:03;97516.03;;;23.64;34.51
16100;BME280;8154;50.830;12.082;2024-02-23T08:07:29;97504.78;;;23.62;34.50
16100;BME280;8154;50.830;12.082;2024-02-23T08:09:56;97516.59;;;23.66;34.16
16100;BME280;8154;50.830;12.082;2024-02-23T08:12:25;97528.16;;;23.72;34.25
16100;BME280;8154;50.830;12.082;2024-02-23T08:14:51;97518.53;;;23.71;34.41
16100;BME280;8154;50.830;12.082;2024-02-23T08:17:37;97518.47;;;23.66;34.33
16100;BME280;8154;50.830;12.082;2024-02-23T08:20:05;97496.25;;;23.60;34.39
16100;BME280;8154;50.830;12.082;2024-02-23T08:22:34;97497.84;;;23.61;34.11
16100;BME280;8154;50.830;12.082;2024-02-23T08:25:02;97514.03;;;23.71;34.18
16100;BME280;8154;50.830;12.082;2024-02-23T08:27:31;97474.50;;;23.52;34.05
16100;BME280;8154;50.830;12.082;2024-02-23T08:29:58;97515.06;;;23.70;34.03
16100;BME280;8154;50.830;12.082;2024-02-23T08:32:25;97513.94;;;23.66;34.04
16100;BME280;8154;50.830;12.082;2024-02-23T08:34:54;97520.88;;;23.67;34.13
16100;BME280;8154;50.830;12.082;2024-02-23T08:37:26;97518.78;;;23.69;34.25
16100;BME280;8154;50.830;12.082;2024-02-23T08:39:56;97529.28;;;23.76;34.10
16100;BME280;8154;50.830;12.082;2024-02-23T08:42:27;97542.16;;;23.79;34.02
16100;BME280;8154;50.830;12.082;2024-02-23T08:44:56;97543.19;;;23.78;34.07
16100;BME280;8154;50.830;12.082;2024-02-23T08:47:24;97544.88;;;23.67;34.11
16100;BME280;8154;50.830;12.082;2024-02-23T08:49:54;97560.16;;;23.72;34.25
16100;BME280;8154;50.830;12.082;2024-02-23T08:52:21;97560.81;;;23.79;33.94
16100;BME280;8154;50.830;12.082;2024-02-23T08:54:47;97561.84;;;23.78;33.90
16100;BME280;8154;50.830;12.082;2024-02-23T08:57:15;97566.41;;;23.77;33.96
16100;BME280;8154;50.830;12.082;2024-02-23T08:59:49;97560.25;;;23.77;34.16
16100;BME280;8154;50.830;12.082;2024-02-23T09:02:17;97534.53;;;23.71;33.93
16100;BME280;8154;50.830;12.082;2024-02-23T09:04:47;97550.16;;;23.79;34.28
16100;BME280;8154;50.830;12.082;2024-02-23T09:07:16;97550.16;;;23.79;33.88
16100;BME280;8154;50.830;12.082;2024-02-23T09:09:47;97558.94;;;23.79;34.06
16100;BME280;8154;50.830;12.082;2024-02-23T09:12:16;97530.44;;;23.63;34.03
16100;BME280;8154;50.830;12.082;2024-02-23T09:14:43;97549.41;;;23.83;33.78
16100;BME280;8154;50.830;12.082;2024-02-23T09:17:09;97538.66;;;23.78;34.09
16100;BME280;8154;50.830;12.082;2024-02-23T09:19:38;97531.06;;;23.70;34.08
16100;BME280;8154;50.830;12.082;2024-02-23T09:22:04;97540.59;;;23.83;34.01
16100;BME280;8154;50.830;12.082;2024-02-23T09:24:33;97543.03;;;23.84;34.12
16100;BME280;8154;50.830;12.082;2024-02-23T09:26:59;97545.69;;;23.84;34.14
16100;BME280;8154;50.830;12.082;2024-02-23T09:29:27;97541.91;;;23.80;34.14
16100;BME280;8154;50.830;12.082;2024-02-23T09:31:53;97551.28;;;23.83;34.08
16100;BME280;8154;50.830;12.082;2024-02-23T09:34:19;97542.00;;;23.85;34.18
16100;BME280;8154;50.830;12.082;2024-02-23T09:36:45;97540.94;;;23.86;33.75
16100;BME280;8154;50.830;12.082;2024-02-23T09:39:12;97542.53;;;23.87;33.76
16100;BME280;8154;50.830;12.082;2024-02-23T09:41:39;97555.78;;;23.82;33.87
16100;BME280;8154;50.830;12.082;2024-02-23T09:44:05;97547.47;;;23.79;33.94
16100;BME280;8154;50.830;12.082;2024-02-23T09:46:40;97553.31;;;23.76;34.00
16100;BME280;8154;50.830;12.082;2024-02-23T09:49:11;97551.03;;;23.84;33.90
16100;BME280;8154;50.830;12.082;2024-02-23T09:51:42;97565.75;;;23.87;33.87
16100;BME280;8154;50.830;12.082;2024-02-23T09:54:12;97560.47;;;23.92;34.01
16100;BME280;8154;50.830;12.082;2024-02-23T09:56:39;97568.97;;;23.89;33.75
16100;BME280;8154;50.830;12.082;2024-02-23T09:59:05;97573.03;;;23.91;33.87
16100;BME280;8154;50.830;12.082;2024-02-23T10:01:32;97570.34;;;23.91;34.08
16100;BME280;8154;50.830;12.082;2024-02-23T10:04:03;97565.81;;;23.92;33.88
16100;BME280;8154;50.830;12.082;2024-02-23T10:06:49;97567.00;;;23.96;33.59
16100;BME280;8154;50.830;12.082;2024-02-23T10:09:18;97569.66;;;23.96;33.91
16100;BME280;8154;50.830;12.082;2024-02-23T10:11:53;97567.44;;;23.93;33.69
16100;BME280;8154;50.830;12.082;2024-02-23T10:14:19;97575.13;;;23.89;33.92
16100;BME280;8154;50.830;12.082;2024-02-23T10:16:48;97578.59;;;23.90;33.92
16100;BME280;8154;50.830;12.082;2024-02-23T10:19:21;97587.63;;;23.89;33.57
16100;BME280;8154;50.830;12.082;2024-02-23T10:21:48;97586.44;;;23.80;33.79
16100;BME280;8154;50.830;12.082;2024-02-23T10:24:18;97600.75;;;23.90;34.06
16100;BME280;8154;50.830;12.082;2024-02-23T10:26:44;97601.72;;;23.84;34.04
16100;BME280;8154;50.830;12.082;2024-02-23T10:29:15;97596.47;;;23.89;33.98
16100;BME280;8154;50.830;12.082;2024-02-23T10:31:47;97595.56;;;23.84;33.98
16100;BME280;8154;50.830;12.082;2024-02-23T10:34:21;97594.38;;;23.91;33.60
16100;BME280;8154;50.830;12.082;2024-02-23T10:36:52;97596.22;;;23.91;33.60
16100;BME280;8154;50.830;12.082;2024-02-23T10:39:22;97603.97;;;23.92;33.90
16100;BME280;8154;50.830;12.082;2024-02-23T10:41:57;97613.84;;;23.92;33.98
16100;BME280;8154;50.830;12.082;2024-02-23T10:44:29;97615.72;;;23.91;33.58
16100;BME280;8154;50.830;12.082;2024-02-23T10:47:00;97611.81;;;23.82;33.76
16100;BME280;8154;50.830;12.082;2024-02-23T10:49:27;97620.00;;;23.92;33.49
16100;BME280;8154;50.830;12.082;2024-02-23T10:51:56;97616.25;;;23.93;33.89
16100;BME280;8154;50.830;12.082;2024-02-23T10:54:26;97623.03;;;23.96;33.59
16100;BME280;8154;50.830;12.082;2024-02-23T10:56:53;97626.63;;;23.90;33.85
16100;BME280;8154;50.830;12.082;2024-02-23T10:59:24;97629.19;;;23.85;33.71
16100;BME280;8154;50.830;12.082;2024-02-23T11:01:52;97629.69;;;23.82;33.77
16100;BME280;8154;50.830;12.082;2024-02-23T11:04:20;97636.72;;;23.88;33.67
16100;BME280;8154;50.830;12.082;2024-02-23T11:06:59;97644.72;;;23.88;33.85
16100;BME280;8154;50.830;12.082;2024-02-23T11:09:32;97644.72;;;23.88;33.69
16100;BME280;8154;50.830;12.082;2024-02-23T11:12:25;97647.63;;;23.86;34.04
16100;BME280;8154;50.830;12.082;2024-02-23T11:14:59;97652.72;;;23.88;33.79
16100;BME280;8154;50.830;12.082;2024-02-23T11:17:30;97647.16;;;23.89;33.84
16100;BME280;8154;50.830;12.082;2024-02-23T11:20:06;97627.81;;;23.82;33.59
16100;BME280;8154;50.830;12.082;2024-02-23T11:22:35;97642.31;;;23.86;33.61
16100;BME280;8154;50.830;12.082;2024-02-23T11:25:06;97634.19;;;23.81;33.87
16100;BME280;8154;50.830;12.082;2024-02-23T11:27:40;97626.44;;;23.80;33.69
16100;BME280;8154;50.830;12.082;2024-02-23T11:30:10;97628.72;;;23.88;33.65
16100;BME280;8154;50.830;12.082;2024-02-23T11:32:39;97634.06;;;23.88;33.51
16100;BME280;8154;50.830;12.082;2024-02-23T11:35:11;97632.03;;;23.78;33.74
16100;BME280;8154;50.830;12.082;2024-02-23T11:37:59;97638.56;;;23.87;33.46
16100;BME280;8154;50.830;12.082;2024-02-23T11:40:34;97623.38;;;23.88;33.62
16100;BME280;8154;50.830;12.082;2024-02-23T11:43:04;97632.44;;;23.87;33.69
16100;BME280;8154;50.830;12.082;2024-02-23T11:45:31;97623.53;;;23.81;33.71
16100;BME280;8154;50.830;12.082;2024-02-23T11:47:58;97630.03;;;23.85;33.77
16100;BME280;8154;50.830;12.082;2024-02-23T11:50:27;97628.63;;;23.83;33.65
16100;BME280;8154;50.830;12.082;2024-02-23T11:52:55;97628.63;;;23.83;33.56
16100;BME280;8154;50.830;12.082;2024-02-23T11:55:21;97630.16;;;23.79;34.00
16100;BME280;8154;50.830;12.082;2024-02-23T11:57:51;97622.72;;;23.81;33.69
16100;BME280;8154;50.830;12.082;2024-02-23T12:00:20;97624.84;;;23.79;33.63
16100;BME280;8154;50.830;12.082;2024-02-23T12:02:48;97610.44;;;23.80;33.77
16100;BME280;8154;50.830;12.082;2024-02-23T12:05:19;97619.56;;;23.84;33.82
16100;BME280;8154;50.830;12.082;2024-02-23T12:07:45;97612.63;;;23.83;33.45
16100;BME280;8154;50.830;12.082;2024-02-23T12:10:11;97607.63;;;23.86;33.50
16100;BME280;8154;50.830;12.082;2024-02-23T12:12:39;97616.69;;;23.85;33.41
16100;BME280;8154;50.830;12.082;2024-02-23T12:15:24;97615.28;;;23.83;33.59
16100;BME280;8154;50.830;12.082;2024-02-23T12:17:58;97623.88;;;23.85;33.51
16100;BME280;8154;50.830;12.082;2024-02-23T12:20:27;97619.56;;;23.84;33.65
16100;BME280;8154;50.830;12.082;2024-02-23T12:22:56;97620.28;;;23.79;33.71
16100;BME280;8154;50.830;12.082;2024-02-23T12:25:25;97622.31;;;23.72;33.61
16100;BME280;8154;50.830;12.082;2024-02-23T12:27:56;97625.63;;;23.79;33.74
16100;BME280;8154;50.830;12.082;2024-02-23T12:30:27;97622.72;;;23.81;33.70
16100;BME280;8154;50.830;12.082;2024-02-23T12:33:06;97611.81;;;23.82;33.45
16100;BME280;8154;50.830;12.082;2024-02-23T12:35:34;97619.56;;;23.84;33.42
16100;BME280;8154;50.830;12.082;2024-02-23T12:38:01;97614.72;;;23.81;33.57
16100;BME280;8154;50.830;12.082;2024-02-23T12:40:30;97614.66;;;23.76;33.70
16100;BME280;8154;50.830;12.082;2024-02-23T12:42:59;97619.50;;;23.79;33.71
16100;BME280;8154;50.830;12.082;2024-02-23T12:45:28;97624.25;;;23.77;33.54
16100;BME280;8154;50.830;12.082;2024-02-23T12:47:57;97623.69;;;23.75;33.58
16100;BME280;8154;50.830;12.082;2024-02-23T12:50:24;97629.25;;;23.73;33.55
16100;BME280;8154;50.830;12.082;2024-02-23T12:52:50;97624.25;;;23.77;33.48
16100;BME280;8154;50.830;12.082;2024-02-23T12:55:18;97632.34;;;23.82;33.31
16100;BME280;8154;50.830;12.082;2024-02-23T12:57:44;97622.22;;;23.84;33.66
16100;BME280;8154;50.830;12.082;2024-02-23T13:00:11;97620.97;;;23.86;33.58
16100;BME280;8154;50.830;12.082;2024-02-23T13:02:40;97624.69;;;23.85;33.55
16100;BME280;8154;50.830;12.082;2024-02-23T13:05:09;97608.25;;;23.77;33.20
16100;BME280;8154;50.830;12.082;2024-02-23T13:07:39;97631.69;;;23.75;33.60
16100;BME280;8154;50.830;12.082;2024-02-23T13:10:10;97633.72;;;23.68;33.95